createdAt,value
2023-02-16T00:01:35.824Z,100888.42
2023-02-16T00:06:38.622Z,100884.64
2023-02-16T00:11:45.289Z,100882.07
2023-02-16T00:16:48.296Z,100880.20
2023-02-16T00:21:54.635Z,100877.27
2023-02-16T00:26:58.093Z,100868.16
2023-02-16T00:32:03.021Z,100857.46
2023-02-16T00:37:08.691Z,100850.23
2023-02-16T00:42:19.872Z,100849.91
2023-02-16T00:47:37.143Z,100849.91
2023-02-16T00:52:42.858Z,100841.81
2023-02-16T00:57:54.640Z,100830.27
2023-02-16T01:03:03.110Z,100818.88
2023-02-16T01:08:13.997Z,100813.53
2023-02-16T01:13:17.433Z,100811.11
2023-02-16T01:18:20.790Z,100806.63
2023-02-16T01:23:23.351Z,100796.63
2023-02-16T01:28:26.408Z,100784.55
2023-02-16T01:33:29.153Z,100777.65
2023-02-16T01:38:31.635Z,100775.93
2023-02-16T01:43:46.527Z,100764.36
2023-02-16T01:48:49.165Z,100756.45
2023-02-16T01:54:00.746Z,100741.97
2023-02-16T01:59:13.457Z,100730.94
2023-02-16T02:04:42.014Z,100722.64
2023-02-16T02:09:57.006Z,100716.79
2023-02-16T02:14:59.536Z,100711.10
2023-02-16T02:20:05.337Z,100707.13
2023-02-16T02:25:23.094Z,100702.98
2023-02-16T02:30:31.512Z,100698.85
2023-02-16T02:35:40.256Z,100692.13
2023-02-16T02:40:45.611Z,100684.36
2023-02-16T02:45:54.470Z,100674.00
2023-02-16T02:51:04.155Z,100671.77
2023-02-16T02:56:13.057Z,100663.33
2023-02-16T03:01:18.738Z,100658.32
2023-02-16T03:06:27.363Z,100649.02
2023-02-16T03:11:33.385Z,100650.92
2023-02-16T03:16:41.863Z,100646.95
2023-02-16T03:21:47.905Z,100640.40
2023-02-16T03:26:54.956Z,100630.91
2023-02-16T03:31:57.954Z,100624.88
2023-02-16T03:37:00.768Z,100626.27
2023-02-16T03:42:03.394Z,100624.54
2023-02-16T03:47:10.762Z,100622.83
2023-02-16T03:52:13.232Z,100613.52
2023-02-16T03:57:16.917Z,100611.95
2023-02-16T04:02:20.120Z,100605.58
2023-02-16T04:07:22.670Z,100590.42
2023-02-16T04:12:28.113Z,100585.42
2023-02-16T04:17:30.620Z,100581.12
2023-02-16T04:22:33.142Z,100573.88
2023-02-16T04:27:36.940Z,100569.57
2023-02-16T04:32:39.619Z,100574.39
2023-02-16T04:37:42.239Z,100575.27
2023-02-16T04:42:45.495Z,100572.85
2023-02-16T04:47:48.157Z,100568.54
2023-02-16T04:52:50.647Z,100567.33
2023-02-16T04:57:55.285Z,100567.66
2023-02-16T05:02:57.761Z,100567.85
2023-02-16T05:08:00.941Z,100553.72
2023-02-16T05:13:06.695Z,100549.42
2023-02-16T05:18:09.186Z,100548.90
2023-02-16T05:23:11.681Z,100548.55
2023-02-16T05:28:14.225Z,100543.91
2023-02-16T05:33:16.696Z,100543.20
2023-02-16T05:38:19.178Z,100537.88
2023-02-16T05:43:21.662Z,100538.55
2023-02-16T05:48:24.531Z,100540.97
2023-02-16T05:53:27.030Z,100544.92
2023-02-16T05:58:29.576Z,100544.05
2023-02-16T06:03:32.693Z,100538.21
2023-02-16T06:08:36.291Z,100529.42
2023-02-16T06:13:38.747Z,100531.84
2023-02-16T06:18:44.800Z,100535.80
2023-02-16T06:23:47.397Z,100526.66
2023-02-16T06:28:50.105Z,100525.10
2023-02-16T06:33:53.797Z,100519.94
2023-02-16T06:38:56.256Z,100525.11
2023-02-16T06:44:00.391Z,100521.84
2023-02-16T06:56:14.198Z,100517.19
2023-02-16T07:01:22.845Z,100514.26
2023-02-16T07:06:28.146Z,100516.85
2023-02-16T07:11:30.670Z,100510.83
2023-02-16T07:16:33.315Z,100503.59
2023-02-16T07:21:35.898Z,100507.21
2023-02-16T07:26:38.603Z,100509.27
2023-02-16T07:31:41.252Z,100510.65
2023-02-16T07:36:45.011Z,100503.60
2023-02-16T07:41:47.539Z,100501.17
2023-02-16T07:46:50.112Z,100493.44
2023-02-16T07:51:52.576Z,100489.48
2023-02-16T07:56:55.118Z,100493.44
2023-02-16T08:01:57.872Z,100487.91
2023-02-16T08:07:00.909Z,100488.43
2023-02-16T08:12:03.569Z,100485.14
2023-02-16T08:17:07.758Z,100483.91
2023-02-16T08:22:12.141Z,100485.11
2023-02-16T08:27:14.629Z,100475.95
2023-02-16T08:32:17.130Z,100475.21
2023-02-16T08:37:19.670Z,100478.27
2023-02-16T08:42:22.206Z,100473.27
2023-02-16T08:47:24.867Z,100470.54
2023-02-16T08:52:27.795Z,100464.36
2023-02-16T08:57:34.432Z,100456.66
2023-02-16T09:02:37.340Z,100455.45
2023-02-16T09:07:41.217Z,100454.20
2023-02-16T09:12:43.716Z,100457.16
2023-02-16T09:17:46.549Z,100455.23
2023-02-16T09:22:49.126Z,100460.91
2023-02-16T09:27:51.604Z,100460.38
2023-02-16T09:32:55.169Z,100456.06
2023-02-16T09:37:58.297Z,100449.85
2023-02-16T09:43:14.940Z,100450.65
2023-02-16T09:48:25.548Z,100442.10
2023-02-16T09:53:37.248Z,100440.14
2023-02-16T09:58:46.484Z,100449.42
2023-02-16T10:03:54.536Z,100451.67
2023-02-16T10:09:04.130Z,100453.06
2023-02-16T10:14:14.408Z,100452.52
2023-02-16T10:19:25.377Z,100454.98
2023-02-16T10:24:31.301Z,100464.80
2023-02-16T10:29:33.917Z,100457.83
2023-02-16T10:34:56.769Z,100452.60
2023-02-16T10:40:03.172Z,100446.98
2023-02-16T10:45:09.900Z,100437.58
2023-02-16T10:50:22.541Z,100448.70
2023-02-16T10:55:25.763Z,100460.58
2023-02-16T11:00:51.744Z,100454.45
2023-02-16T11:05:55.331Z,100456.58
2023-02-16T11:10:57.870Z,100463.34
2023-02-16T11:16:06.805Z,100452.45
2023-02-16T11:21:13.768Z,100457.70
2023-02-16T11:26:19.134Z,100450.41
2023-02-16T11:31:30.528Z,100451.52
2023-02-16T11:36:35.817Z,100454.09
2023-02-16T11:41:43.339Z,100446.23
2023-02-16T11:46:46.618Z,100436.27
2023-02-16T11:51:49.180Z,100439.45
2023-02-16T11:57:01.002Z,100437.77
2023-02-16T12:02:09.637Z,100442.10
2023-02-16T12:07:23.416Z,100437.73
2023-02-16T12:12:34.488Z,100428.26
2023-02-16T12:17:42.815Z,100423.23
2023-02-16T12:22:49.107Z,100422.55
2023-02-16T12:27:56.385Z,100432.77
2023-02-16T12:33:11.736Z,100436.98
2023-02-16T12:38:18.222Z,100432.41
2023-02-16T12:43:26.637Z,100421.33
2023-02-16T12:48:32.740Z,100413.65
2023-02-16T12:53:43.289Z,100407.41
2023-02-16T12:58:53.168Z,100406.23
2023-02-16T13:04:18.863Z,100399.00
2023-02-16T13:09:34.029Z,100401.98
2023-02-16T13:14:42.754Z,100398.39
2023-02-16T13:19:52.255Z,100378.66
2023-02-16T13:24:58.748Z,100381.91
2023-02-16T13:30:10.358Z,100379.05
2023-02-16T13:35:18.822Z,100377.25
2023-02-16T13:40:41.224Z,100372.60
2023-02-16T13:45:47.036Z,100364.74
2023-02-16T13:50:56.885Z,100366.80
2023-02-16T13:56:05.549Z,100365.98
2023-02-16T14:01:14.156Z,100362.97
2023-02-16T14:06:22.459Z,100360.49
2023-02-16T14:11:25.108Z,100357.14
2023-02-16T14:16:31.462Z,100357.65
2023-02-16T14:21:41.069Z,100354.80
2023-02-16T14:26:49.376Z,100354.55
2023-02-16T14:32:00.739Z,100366.58
2023-02-16T14:37:27.774Z,100365.86
2023-02-16T14:42:34.039Z,100365.45
2023-02-16T14:47:39.357Z,100373.61
2023-02-16T14:52:46.951Z,100367.61
2023-02-16T14:57:52.753Z,100364.91
2023-02-16T15:02:59.788Z,100366.83
2023-02-16T15:08:11.691Z,100365.83
2023-02-16T15:13:21.058Z,100370.27
2023-02-16T15:18:28.208Z,100372.73
2023-02-16T15:23:35.607Z,100365.25
2023-02-16T15:28:40.747Z,100355.38
2023-02-16T15:33:53.362Z,100349.86
2023-02-16T15:38:58.608Z,100346.01
2023-02-16T15:44:03.761Z,100347.67
2023-02-16T15:49:12.449Z,100345.89
2023-02-16T15:54:26.680Z,100343.92
2023-02-16T15:59:35.297Z,100339.71
2023-02-16T16:04:43.795Z,100338.73
2023-02-16T16:09:47.580Z,100336.17
2023-02-16T16:14:56.487Z,100333.98
2023-02-16T16:20:20.295Z,100320.55
2023-02-16T16:25:28.634Z,100321.10
2023-02-16T16:30:36.174Z,100316.45
2023-02-16T16:35:49.014Z,100316.14
2023-02-16T16:40:57.359Z,100310.65
2023-02-16T16:46:05.739Z,100305.50
2023-02-16T16:51:10.492Z,100299.30
2023-02-16T16:56:20.509Z,100296.39
2023-02-16T17:01:24.281Z,100289.69
2023-02-16T17:06:27.458Z,100294.34
2023-02-16T17:11:34.114Z,100297.77
2023-02-16T17:16:41.923Z,100297.27
2023-02-16T17:21:45.567Z,100296.05
2023-02-16T17:26:52.871Z,100291.75
2023-02-16T17:31:56.241Z,100292.78
2023-02-16T17:37:02.763Z,100297.75
2023-02-16T17:42:15.500Z,100293.95
2023-02-16T17:47:20.243Z,100292.04
2023-02-16T17:52:22.766Z,100291.52
2023-02-16T17:57:28.052Z,100295.47
2023-02-16T18:02:30.851Z,100297.67
2023-02-16T18:07:33.398Z,100296.27
2023-02-16T18:12:36.215Z,100300.39
2023-02-16T18:17:41.573Z,100295.58
2023-02-16T18:22:44.240Z,100291.25
2023-02-16T18:27:46.969Z,100293.31
2023-02-16T18:32:50.524Z,100285.38
2023-02-16T18:37:53.038Z,100282.95
2023-02-16T18:42:56.646Z,100289.64
2023-02-16T18:48:00.170Z,100283.73
2023-02-16T18:53:03.069Z,100277.48
2023-02-16T18:58:08.321Z,100269.36
2023-02-16T19:03:11.139Z,100272.14
2023-02-16T19:08:15.921Z,100269.56
2023-02-16T19:13:18.413Z,100264.56
2023-02-16T19:18:20.962Z,100262.33
2023-02-16T19:23:23.678Z,100260.80
2023-02-16T19:28:26.231Z,100262.36
2023-02-16T19:33:31.998Z,100255.45
2023-02-16T19:38:34.668Z,100253.01
2023-02-16T19:43:38.618Z,100243.00
2023-02-16T19:48:42.440Z,100241.94
2023-02-16T19:53:45.645Z,100238.28
2023-02-16T19:58:48.680Z,100241.69
2023-02-16T20:03:52.458Z,100241.44
2023-02-16T20:08:56.569Z,100240.86
2023-02-16T20:14:01.087Z,100240.63
2023-02-16T20:19:03.818Z,100244.39
2023-02-16T20:24:06.677Z,100240.44
2023-02-16T20:29:14.010Z,100237.85
2023-02-16T20:34:16.752Z,100239.53
2023-02-16T20:39:21.733Z,100236.84
2023-02-16T20:44:25.735Z,100237.09
2023-02-16T20:49:28.279Z,100243.73
2023-02-16T20:54:31.472Z,100249.55
2023-02-16T20:59:35.202Z,100244.45
2023-02-16T21:04:37.696Z,100243.35
2023-02-16T21:09:40.586Z,100242.44
2023-02-16T21:14:43.110Z,100235.11
2023-02-16T21:19:45.674Z,100227.41
2023-02-16T21:24:48.253Z,100228.91
2023-02-16T21:29:51.399Z,100228.16
2023-02-16T21:34:55.039Z,100229.13
2023-02-16T21:40:00.432Z,100229.95
2023-02-16T21:45:07.025Z,100233.05
2023-02-16T21:50:09.628Z,100235.30
2023-02-16T21:55:15.048Z,100229.21
2023-02-16T22:00:19.277Z,100229.35
2023-02-16T22:05:21.863Z,100223.14
2023-02-16T22:10:26.219Z,100226.06
2023-02-16T22:15:29.524Z,100223.84
2023-02-16T22:20:32.348Z,100224.57
2023-02-16T22:25:39.436Z,100217.66
2023-02-16T22:30:44.424Z,100216.64
2023-02-16T22:35:47.659Z,100214.34
2023-02-16T22:40:50.133Z,100203.46
2023-02-16T22:45:52.662Z,100196.38
2023-02-16T22:51:06.028Z,100190.63
2023-02-16T22:56:11.489Z,100189.31
2023-02-16T23:01:17.161Z,100186.17
2023-02-16T23:06:22.307Z,100184.76
2023-02-16T23:11:25.615Z,100184.38
2023-02-16T23:16:28.794Z,100182.67
2023-02-16T23:21:33.062Z,100177.70
2023-02-16T23:26:35.595Z,100179.76
2023-02-16T23:31:44.336Z,100183.19
2023-02-16T23:36:46.945Z,100179.59
2023-02-16T23:41:49.528Z,100173.08
2023-02-16T23:46:52.033Z,100183.98
2023-02-16T23:51:54.639Z,100182.11
2023-02-16T23:56:58.985Z,100173.86
